sensor_id;sensor_type;location;lat;lon;timestamp;P1;durP1;ratioP1;P2;durP2;ratioP2
33206;SDS011;19565;46.602;11.534;2023-04-01T00:00:52;0.30;;;0.30;;
33206;SDS011;19565;46.602;11.534;2023-04-01T00:03:22;0.30;;;0.30;;
33206;SDS011;19565;46.602;11.534;2023-04-01T00:05:53;0.70;;;0.70;;
33206;SDS011;19565;46.602;11.534;2023-04-01T00:08:21;0.50;;;0.50;;
33206;SDS011;19565;46.602;11.534;2023-04-01T00:10:50;0.30;;;0.30;;
33206;SDS011;19565;46.602;11.534;2023-04-01T00:13:19;0.50;;;0.50;;
33206;SDS011;19565;46.602;11.534;2023-04-01T00:15:48;0.47;;;0.47;;
33206;SDS011;19565;46.602;11.534;2023-04-01T00:18:16;0.53;;;0.53;;
33206;SDS011;19565;46.602;11.534;2023-04-01T00:20:45;0.40;;;0.40;;
33206;SDS011;19565;46.602;11.534;2023-04-01T00:23:14;0.50;;;0.50;;
33206;SDS011;19565;46.602;11.534;2023-04-01T00:25:42;0.97;;;0.87;;
33206;SDS011;19565;46.602;11.534;2023-04-01T00:28:11;1.23;;;1.03;;
33206;SDS011;19565;46.602;11.534;2023-04-01T00:30:41;1.00;;;1.00;;
33206;SDS011;19565;46.602;11.534;2023-04-01T00:33:09;0.40;;;0.40;;
33206;SDS011;19565;46.602;11.534;2023-04-01T00:35:38;1.30;;;0.63;;
33206;SDS011;19565;46.602;11.534;2023-04-01T00:38:06;1.17;;;0.90;;
33206;SDS011;19565;46.602;11.534;2023-04-01T00:40:35;0.30;;;0.30;;
33206;SDS011;19565;46.602;11.534;2023-04-01T00:43:08;0.53;;;0.53;;
33206;SDS011;19565;46.602;11.534;2023-04-01T00:45:39;0.83;;;0.63;;
33206;SDS011;19565;46.602;11.534;2023-04-01T00:48:10;0.97;;;0.60;;
33206;SDS011;19565;46.602;11.534;2023-04-01T00:50:42;1.07;;;0.93;;
33206;SDS011;19565;46.602;11.534;2023-04-01T00:53:13;0.50;;;0.50;;
33206;SDS011;19565;46.602;11.534;2023-04-01T00:55:42;0.77;;;0.77;;
33206;SDS011;19565;46.602;11.534;2023-04-01T00:58:15;0.50;;;0.50;;
33206;SDS011;19565;46.602;11.534;2023-04-01T01:00:47;0.50;;;0.50;;
33206;SDS011;19565;46.602;11.534;2023-04-01T01:03:19;1.23;;;0.77;;
33206;SDS011;19565;46.602;11.534;2023-04-01T01:05:57;0.73;;;0.73;;
33206;SDS011;19565;46.602;11.534;2023-04-01T01:08:39;0.73;;;0.73;;
33206;SDS011;19565;46.602;11.534;2023-04-01T01:11:21;0.67;;;0.67;;
33206;SDS011;19565;46.602;11.534;2023-04-01T01:14:04;0.30;;;0.30;;
33206;SDS011;19565;46.602;11.534;2023-04-01T01:16:52;0.43;;;0.43;;
33206;SDS011;19565;46.602;11.534;2023-04-01T01:19:33;0.57;;;0.57;;
33206;SDS011;19565;46.602;11.534;2023-04-01T01:22:27;0.37;;;0.37;;
33206;SDS011;19565;46.602;11.534;2023-04-01T01:28:02;0.50;;;0.50;;
33206;SDS011;19565;46.602;11.534;2023-04-01T01:30:44;0.97;;;0.73;;
33206;SDS011;19565;46.602;11.534;2023-04-01T01:33:24;0.73;;;0.73;;
33206;SDS011;19565;46.602;11.534;2023-04-01T01:36:03;0.93;;;0.70;;
33206;SDS011;19565;46.602;11.534;2023-04-01T01:38:34;0.40;;;0.40;;
33206;SDS011;19565;46.602;11.534;2023-04-01T01:41:04;0.77;;;0.77;;
33206;SDS011;19565;46.602;11.534;2023-04-01T01:43:35;0.40;;;0.40;;
33206;SDS011;19565;46.602;11.534;2023-04-01T01:46:06;1.73;;;1.63;;
33206;SDS011;19565;46.602;11.534;2023-04-01T01:48:38;1.67;;;1.57;;
33206;SDS011;19565;46.602;11.534;2023-04-01T01:51:10;2.00;;;1.90;;
33206;SDS011;19565;46.602;11.534;2023-04-01T01:53:38;1.77;;;1.67;;
33206;SDS011;19565;46.602;11.534;2023-04-01T01:56:06;1.97;;;1.87;;
33206;SDS011;19565;46.602;11.534;2023-04-01T01:58:37;1.70;;;1.60;;
33206;SDS011;19565;46.602;11.534;2023-04-01T02:01:11;2.30;;;2.20;;
33206;SDS011;19565;46.602;11.534;2023-04-01T02:03:42;1.30;;;1.30;;
33206;SDS011;19565;46.602;11.534;2023-04-01T02:06:14;4.53;;;2.13;;
33206;SDS011;19565;46.602;11.534;2023-04-01T02:08:47;1.30;;;1.30;;
33206;SDS011;19565;46.602;11.534;2023-04-01T02:11:19;1.37;;;1.37;;
33206;SDS011;19565;46.602;11.534;2023-04-01T02:13:52;1.90;;;1.80;;
33206;SDS011;19565;46.602;11.534;2023-04-01T02:16:24;1.80;;;1.70;;
33206;SDS011;19565;46.602;11.534;2023-04-01T02:18:56;1.67;;;1.50;;
33206;SDS011;19565;46.602;11.534;2023-04-01T02:21:29;2.10;;;1.97;;
33206;SDS011;19565;46.602;11.534;2023-04-01T02:23:59;5.97;;;2.00;;
33206;SDS011;19565;46.602;11.534;2023-04-01T02:26:29;1.73;;;1.67;;
33206;SDS011;19565;46.602;11.534;2023-04-01T02:28:58;1.10;;;1.10;;
33206;SDS011;19565;46.602;11.534;2023-04-01T02:31:28;1.70;;;1.60;;
33206;SDS011;19565;46.602;11.534;2023-04-01T02:33:56;2.40;;;1.20;;
33206;SDS011;19565;46.602;11.534;2023-04-01T02:36:25;1.60;;;1.50;;
33206;SDS011;19565;46.602;11.534;2023-04-01T02:38:54;1.33;;;1.23;;
33206;SDS011;19565;46.602;11.534;2023-04-01T02:41:27;1.93;;;1.83;;
33206;SDS011;19565;46.602;11.534;2023-04-01T02:43:55;2.53;;;2.33;;
33206;SDS011;19565;46.602;11.534;2023-04-01T02:46:25;1.43;;;1.33;;
33206;SDS011;19565;46.602;11.534;2023-04-01T02:48:53;1.37;;;1.27;;
33206;SDS011;19565;46.602;11.534;2023-04-01T02:51:21;1.83;;;1.73;;
33206;SDS011;19565;46.602;11.534;2023-04-01T02:53:49;1.53;;;1.27;;
33206;SDS011;19565;46.602;11.534;2023-04-01T02:56:18;2.27;;;2.17;;
33206;SDS011;19565;46.602;11.534;2023-04-01T02:58:47;3.77;;;2.00;;
33206;SDS011;19565;46.602;11.534;2023-04-01T03:01:16;1.30;;;1.30;;
33206;SDS011;19565;46.602;11.534;2023-04-01T03:03:45;2.33;;;2.13;;
33206;SDS011;19565;46.602;11.534;2023-04-01T03:06:13;1.77;;;1.60;;
33206;SDS011;19565;46.602;11.534;2023-04-01T03:08:43;1.70;;;1.60;;
33206;SDS011;19565;46.602;11.534;2023-04-01T03:11:12;0.30;;;0.30;;
33206;SDS011;19565;46.602;11.534;2023-04-01T03:13:41;2.10;;;1.43;;
33206;SDS011;19565;46.602;11.534;2023-04-01T03:16:09;1.33;;;1.23;;
33206;SDS011;19565;46.602;11.534;2023-04-01T03:18:38;0.80;;;0.80;;
33206;SDS011;19565;46.602;11.534;2023-04-01T03:21:13;1.37;;;1.23;;
33206;SDS011;19565;46.602;11.534;2023-04-01T03:23:42;1.80;;;1.70;;
33206;SDS011;19565;46.602;11.534;2023-04-01T03:26:10;0.97;;;0.97;;
33206;SDS011;19565;46.602;11.534;2023-04-01T03:28:38;0.90;;;0.90;;
33206;SDS011;19565;46.602;11.534;2023-04-01T03:31:08;0.50;;;0.50;;
33206;SDS011;19565;46.602;11.534;2023-04-01T03:33:36;0.83;;;0.77;;
33206;SDS011;19565;46.602;11.534;2023-04-01T03:36:04;0.93;;;0.87;;
33206;SDS011;19565;46.602;11.534;2023-04-01T03:38:33;1.23;;;1.07;;
33206;SDS011;19565;46.602;11.534;2023-04-01T03:41:02;1.63;;;1.53;;
33206;SDS011;19565;46.602;11.534;2023-04-01T03:43:30;2.07;;;1.87;;
33206;SDS011;19565;46.602;11.534;2023-04-01T03:45:59;1.13;;;1.13;;
33206;SDS011;19565;46.602;11.534;2023-04-01T03:48:28;2.83;;;2.63;;
33206;SDS011;19565;46.602;11.534;2023-04-01T03:50:56;1.20;;;1.20;;
33206;SDS011;19565;46.602;11.534;2023-04-01T03:53:24;1.30;;;1.27;;
33206;SDS011;19565;46.602;11.534;2023-04-01T03:55:53;1.37;;;1.37;;
33206;SDS011;19565;46.602;11.534;2023-04-01T03:58:21;1.87;;;1.77;;
33206;SDS011;19565;46.602;11.534;2023-04-01T04:00:49;1.57;;;1.30;;
33206;SDS011;19565;46.602;11.534;2023-04-01T04:03:17;1.10;;;1.10;;
33206;SDS011;19565;46.602;11.534;2023-04-01T04:05:48;7.47;;;1.50;;
33206;SDS011;19565;46.602;11.534;2023-04-01T04:08:17;2.13;;;1.97;;
33206;SDS011;19565;46.602;11.534;2023-04-01T04:10:47;2.23;;;2.03;;
33206;SDS011;19565;46.602;11.534;2023-04-01T04:13:22;1.80;;;1.70;;
33206;SDS011;19565;46.602;11.534;2023-04-01T04:15:50;1.83;;;1.73;;
33206;SDS011;19565;46.602;11.534;2023-04-01T04:18:18;0.77;;;0.77;;
33206;SDS011;19565;46.602;11.534;2023-04-01T04:20:47;1.27;;;1.27;;
33206;SDS011;19565;46.602;11.534;2023-04-01T04:23:17;0.70;;;0.70;;
33206;SDS011;19565;46.602;11.534;2023-04-01T04:25:53;0.50;;;0.50;;
33206;SDS011;19565;46.602;11.534;2023-04-01T04:28:22;1.97;;;1.37;;
33206;SDS011;19565;46.602;11.534;2023-04-01T04:30:50;1.40;;;1.33;;
33206;SDS011;19565;46.602;11.534;2023-04-01T04:33:18;1.23;;;1.23;;
33206;SDS011;19565;46.602;11.534;2023-04-01T04:35:47;1.30;;;1.30;;
33206;SDS011;19565;46.602;11.534;2023-04-01T05:03:09;2.90;;;2.60;;
33206;SDS011;19565;46.602;11.534;2023-04-01T05:05:38;2.27;;;2.17;;
33206;SDS011;19565;46.602;11.534;2023-04-01T05:08:06;1.87;;;1.73;;
33206;SDS011;19565;46.602;11.534;2023-04-01T05:10:34;2.60;;;2.40;;
33206;SDS011;19565;46.602;11.534;2023-04-01T05:13:02;2.20;;;2.00;;
33206;SDS011;19565;46.602;11.534;2023-04-01T05:15:30;2.20;;;2.10;;
33206;SDS011;19565;46.602;11.534;2023-04-01T05:17:59;2.30;;;2.10;;
33206;SDS011;19565;46.602;11.534;2023-04-01T05:20:28;1.13;;;1.13;;
33206;SDS011;19565;46.602;11.534;2023-04-01T05:22:56;1.83;;;1.70;;
33206;SDS011;19565;46.602;11.534;2023-04-01T05:25:25;1.57;;;1.47;;
33206;SDS011;19565;46.602;11.534;2023-04-01T05:27:53;0.57;;;0.57;;
33206;SDS011;19565;46.602;11.534;2023-04-01T05:30:21;0.73;;;0.73;;
33206;SDS011;19565;46.602;11.534;2023-04-01T05:32:49;0.60;;;0.60;;
33206;SDS011;19565;46.602;11.534;2023-04-01T05:35:17;0.50;;;0.50;;
33206;SDS011;19565;46.602;11.534;2023-04-01T05:37:46;0.90;;;0.90;;
33206;SDS011;19565;46.602;11.534;2023-04-01T05:40:16;1.30;;;1.20;;
33206;SDS011;19565;46.602;11.534;2023-04-01T05:42:44;0.50;;;0.50;;
33206;SDS011;19565;46.602;11.534;2023-04-01T05:45:12;0.73;;;0.50;;
33206;SDS011;19565;46.602;11.534;2023-04-01T05:47:42;1.97;;;1.10;;
33206;SDS011;19565;46.602;11.534;2023-04-01T05:50:10;0.60;;;0.60;;
33206;SDS011;19565;46.602;11.534;2023-04-01T05:52:38;0.80;;;0.80;;
33206;SDS011;19565;46.602;11.534;2023-04-01T05:55:08;0.77;;;0.60;;
33206;SDS011;19565;46.602;11.534;2023-04-01T05:57:36;0.50;;;0.50;;
33206;SDS011;19565;46.602;11.534;2023-04-01T06:00:05;0.70;;;0.70;;
33206;SDS011;19565;46.602;11.534;2023-04-01T06:02:34;0.60;;;0.60;;
33206;SDS011;19565;46.602;11.534;2023-04-01T06:05:10;1.10;;;1.10;;
33206;SDS011;19565;46.602;11.534;2023-04-01T06:07:41;1.50;;;1.23;;
33206;SDS011;19565;46.602;11.534;2023-04-01T06:10:12;1.03;;;1.03;;
33206;SDS011;19565;46.602;11.534;2023-04-01T06:12:45;1.10;;;1.10;;
33206;SDS011;19565;46.602;11.534;2023-04-01T06:15:29;2.97;;;2.23;;
33206;SDS011;19565;46.602;11.534;2023-04-01T06:18:10;2.27;;;2.07;;
33206;SDS011;19565;46.602;11.534;2023-04-01T06:20:52;1.20;;;1.10;;
33206;SDS011;19565;46.602;11.534;2023-04-01T06:23:38;3.53;;;2.53;;
33206;SDS011;19565;46.602;11.534;2023-04-01T06:26:19;1.10;;;1.10;;
33206;SDS011;19565;46.602;11.534;2023-04-01T06:32:05;1.17;;;1.13;;
33206;SDS011;19565;46.602;11.534;2023-04-01T06:35:00;0.93;;;0.93;;
33206;SDS011;19565;46.602;11.534;2023-04-01T06:37:49;2.63;;;2.43;;
33206;SDS011;19565;46.602;11.534;2023-04-01T06:43:36;0.73;;;0.73;;
33206;SDS011;19565;46.602;11.534;2023-04-01T06:46:15;0.83;;;0.83;;
33206;SDS011;19565;46.602;11.534;2023-04-01T06:48:53;0.63;;;0.63;;
33206;SDS011;19565;46.602;11.534;2023-04-01T06:51:36;0.60;;;0.60;;
33206;SDS011;19565;46.602;11.534;2023-04-01T06:54:11;0.70;;;0.70;;
33206;SDS011;19565;46.602;11.534;2023-04-01T06:56:44;1.70;;;1.60;;
33206;SDS011;19565;46.602;11.534;2023-04-01T06:59:18;2.00;;;1.57;;
33206;SDS011;19565;46.602;11.534;2023-04-01T07:01:49;1.93;;;1.83;;
33206;SDS011;19565;46.602;11.534;2023-04-01T07:04:20;0.73;;;0.73;;
33206;SDS011;19565;46.602;11.534;2023-04-01T07:06:53;0.87;;;0.80;;
33206;SDS011;19565;46.602;11.534;2023-04-01T07:09:26;2.63;;;1.13;;
33206;SDS011;19565;46.602;11.534;2023-04-01T07:12:00;0.90;;;0.83;;
33206;SDS011;19565;46.602;11.534;2023-04-01T07:14:35;1.57;;;1.33;;
33206;SDS011;19565;46.602;11.534;2023-04-01T07:17:05;0.70;;;0.70;;
33206;SDS011;19565;46.602;11.534;2023-04-01T07:19:41;1.77;;;1.67;;
33206;SDS011;19565;46.602;11.534;2023-04-01T07:22:15;0.53;;;0.53;;
33206;SDS011;19565;46.602;11.534;2023-04-01T07:24:48;0.67;;;0.67;;
33206;SDS011;19565;46.602;11.534;2023-04-01T07:27:18;0.50;;;0.50;;
33206;SDS011;19565;46.602;11.534;2023-04-01T07:29:48;2.10;;;1.27;;
33206;SDS011;19565;46.602;11.534;2023-04-01T07:32:18;0.97;;;0.97;;
33206;SDS011;19565;46.602;11.534;2023-04-01T07:34:56;1.37;;;1.27;;
33206;SDS011;19565;46.602;11.534;2023-04-01T07:37:36;1.07;;;1.07;;
33206;SDS011;19565;46.602;11.534;2023-04-01T07:40:13;0.87;;;0.83;;
33206;SDS011;19565;46.602;11.534;2023-04-01T07:42:54;1.03;;;1.03;;
33206;SDS011;19565;46.602;11.534;2023-04-01T07:45:41;1.27;;;1.17;;
33206;SDS011;19565;46.602;11.534;2023-04-01T07:48:19;1.57;;;1.47;;
33206;SDS011;19565;46.602;11.534;2023-04-01T07:50:55;0.80;;;0.80;;
33206;SDS011;19565;46.602;11.534;2023-04-01T07:53:30;2.70;;;2.60;;
33206;SDS011;19565;46.602;11.534;2023-04-01T07:56:05;2.80;;;2.70;;
33206;SDS011;19565;46.602;11.534;2023-04-01T07:58:40;3.70;;;3.20;;
33206;SDS011;19565;46.602;11.534;2023-04-01T08:01:20;4.77;;;4.23;;
33206;SDS011;19565;46.602;11.534;2023-04-01T08:04:00;2.93;;;2.83;;
33206;SDS011;19565;46.602;11.534;2023-04-01T08:06:41;5.83;;;3.23;;
33206;SDS011;19565;46.602;11.534;2023-04-01T08:09:14;3.93;;;3.13;;
33206;SDS011;19565;46.602;11.534;2023-04-01T08:11:55;3.10;;;2.90;;
33206;SDS011;19565;46.602;11.534;2023-04-01T08:14:30;2.77;;;2.67;;
33206;SDS011;19565;46.602;11.534;2023-04-01T08:17:08;0.70;;;0.70;;
33206;SDS011;19565;46.602;11.534;2023-04-01T08:19:46;3.30;;;3.07;;
33206;SDS011;19565;46.602;11.534;2023-04-01T08:22:25;3.97;;;3.63;;
33206;SDS011;19565;46.602;11.534;2023-04-01T08:24:55;3.17;;;2.97;;
33206;SDS011;19565;46.602;11.534;2023-04-01T08:27:30;2.80;;;2.70;;
33206;SDS011;19565;46.602;11.534;2023-04-01T08:30:03;5.10;;;4.80;;
33206;SDS011;19565;46.602;11.534;2023-04-01T08:32:44;3.33;;;3.13;;
33206;SDS011;19565;46.602;11.534;2023-04-01T08:35:20;3.60;;;3.40;;
33206;SDS011;19565;46.602;11.534;2023-04-01T08:37:59;3.67;;;3.47;;
33206;SDS011;19565;46.602;11.534;2023-04-01T08:40:37;3.70;;;3.50;;
33206;SDS011;19565;46.602;11.534;2023-04-01T08:43:29;5.20;;;4.80;;
33206;SDS011;19565;46.602;11.534;2023-04-01T08:46:28;6.40;;;6.00;;
33206;SDS011;19565;46.602;11.534;2023-04-01T08:49:24;5.90;;;5.60;;
33206;SDS011;19565;46.602;11.534;2023-04-01T08:52:21;6.60;;;6.20;;
33206;SDS011;19565;46.602;11.534;2023-04-01T08:58:18;3.43;;;3.23;;
33206;SDS011;19565;46.602;11.534;2023-04-01T09:01:06;15.33;;;14.53;;
33206;SDS011;19565;46.602;11.534;2023-04-01T09:03:44;19.90;;;19.00;;
33206;SDS011;19565;46.602;11.534;2023-04-01T09:06:32;25.77;;;24.57;;
33206;SDS011;19565;46.602;11.534;2023-04-01T09:09:24;31.43;;;30.03;;
33206;SDS011;19565;46.602;11.534;2023-04-01T09:18:09;35.10;;;33.60;;
33206;SDS011;19565;46.602;11.534;2023-04-01T09:20:50;34.80;;;33.30;;
33206;SDS011;19565;46.602;11.534;2023-04-01T09:23:42;36.43;;;34.83;;
33206;SDS011;19565;46.602;11.534;2023-04-01T09:29:29;40.37;;;38.67;;
33206;SDS011;19565;46.602;11.534;2023-04-01T09:35:22;53.97;;;51.70;;
33206;SDS011;19565;46.602;11.534;2023-04-01T09:37:52;54.50;;;52.10;;
33206;SDS011;19565;46.602;11.534;2023-04-01T09:40:40;50.50;;;48.40;;
33206;SDS011;19565;46.602;11.534;2023-04-01T09:43:18;18.07;;;17.17;;
33206;SDS011;19565;46.602;11.534;2023-04-01T09:45:56;17.77;;;16.87;;
33206;SDS011;19565;46.602;11.534;2023-04-01T09:48:43;17.57;;;16.67;;
33206;SDS011;19565;46.602;11.534;2023-04-01T09:51:34;18.70;;;17.80;;
33206;SDS011;19565;46.602;11.534;2023-04-01T09:54:11;18.30;;;17.40;;
33206;SDS011;19565;46.602;11.534;2023-04-01T10:00:07;20.10;;;19.10;;
33206;SDS011;19565;46.602;11.534;2023-04-01T10:02:55;17.73;;;16.93;;
33206;SDS011;19565;46.602;11.534;2023-04-01T10:05:57;18.17;;;17.27;;
33206;SDS011;19565;46.602;11.534;2023-04-01T10:08:58;18.60;;;17.70;;
33206;SDS011;19565;46.602;11.534;2023-04-01T10:21:09;18.27;;;17.37;;
33206;SDS011;19565;46.602;11.534;2023-04-01T10:24:07;18.10;;;17.20;;
33206;SDS011;19565;46.602;11.534;2023-04-01T10:27:10;18.03;;;17.13;;
33206;SDS011;19565;46.602;11.534;2023-04-01T10:36:16;18.20;;;17.30;;
33206;SDS011;19565;46.602;11.534;2023-04-01T10:39:19;18.20;;;17.30;;
33206;SDS011;19565;46.602;11.534;2023-04-01T10:42:11;18.30;;;17.40;;
33206;SDS011;19565;46.602;11.534;2023-04-01T10:51:45;18.07;;;17.17;;
33206;SDS011;19565;46.602;11.534;2023-04-01T10:54:40;18.50;;;17.60;;
33206;SDS011;19565;46.602;11.534;2023-04-01T10:57:26;20.70;;;19.80;;
33206;SDS011;19565;46.602;11.534;2023-04-01T11:00:31;17.70;;;16.80;;
33206;SDS011;19565;46.602;11.534;2023-04-01T11:09:44;17.73;;;16.83;;
33206;SDS011;19565;46.602;11.534;2023-04-01T11:13:02;17.77;;;16.87;;
33206;SDS011;19565;46.602;11.534;2023-04-01T11:19:20;17.10;;;16.30;;
33206;SDS011;19565;46.602;11.534;2023-04-01T11:25:38;17.10;;;16.30;;
33206;SDS011;19565;46.602;11.534;2023-04-01T11:31:22;17.40;;;16.60;;
33206;SDS011;19565;46.602;11.534;2023-04-01T11:34:04;17.40;;;16.60;;
33206;SDS011;19565;46.602;11.534;2023-04-01T11:36:46;17.90;;;17.00;;
33206;SDS011;19565;46.602;11.534;2023-04-01T11:39:29;18.13;;;17.23;;
33206;SDS011;19565;46.602;11.534;2023-04-01T11:42:06;18.80;;;17.90;;
33206;SDS011;19565;46.602;11.534;2023-04-01T11:44:45;18.40;;;17.50;;
33206;SDS011;19565;46.602;11.534;2023-04-01T11:47:27;19.43;;;18.43;;
33206;SDS011;19565;46.602;11.534;2023-04-01T11:50:24;23.20;;;22.20;;
33206;SDS011;19565;46.602;11.534;2023-04-01T11:53:11;18.42;;;17.52;;
33206;SDS011;19565;46.602;11.534;2023-04-01T11:55:47;18.17;;;17.27;;
33206;SDS011;19565;46.602;11.534;2023-04-01T11:58:40;25.70;;;24.50;;
33206;SDS011;19565;46.602;11.534;2023-04-01T12:01:33;17.50;;;16.70;;
33206;SDS011;19565;46.602;11.534;2023-04-01T12:07:27;33.77;;;32.37;;
33206;SDS011;19565;46.602;11.534;2023-04-01T12:10:15;15.97;;;15.17;;
33206;SDS011;19565;46.602;11.534;2023-04-01T12:12:47;19.07;;;18.17;;
33206;SDS011;19565;46.602;11.534;2023-04-01T12:15:30;20.43;;;19.53;;
33206;SDS011;19565;46.602;11.534;2023-04-01T12:18:13;18.05;;;17.15;;
33206;SDS011;19565;46.602;11.534;2023-04-01T12:20:49;17.90;;;17.00;;
33206;SDS011;19565;46.602;11.534;2023-04-01T12:23:24;18.30;;;17.40;;
33206;SDS011;19565;46.602;11.534;2023-04-01T12:26:19;18.92;;;18.02;;
33206;SDS011;19565;46.602;11.534;2023-04-01T12:29:02;18.90;;;18.00;;
33206;SDS011;19565;46.602;11.534;2023-04-01T12:31:45;19.00;;;18.10;;
33206;SDS011;19565;46.602;11.534;2023-04-01T12:37:33;18.70;;;17.80;;
33206;SDS011;19565;46.602;11.534;2023-04-01T12:40:17;16.67;;;15.87;;
33206;SDS011;19565;46.602;11.534;2023-04-01T12:43:03;17.50;;;16.65;;
33206;SDS011;19565;46.602;11.534;2023-04-01T12:45:43;17.83;;;16.95;;
33206;SDS011;19565;46.602;11.534;2023-04-01T12:48:21;17.95;;;17.05;;
33206;SDS011;19565;46.602;11.534;2023-04-01T12:51:03;18.23;;;17.33;;
33206;SDS011;19565;46.602;11.534;2023-04-01T12:53:55;18.15;;;17.25;;
33206;SDS011;19565;46.602;11.534;2023-04-01T12:56:47;22.80;;;21.80;;
33206;SDS011;19565;46.602;11.534;2023-04-01T12:59:24;20.00;;;19.00;;
33206;SDS011;19565;46.602;11.534;2023-04-01T13:02:07;26.83;;;25.65;;
33206;SDS011;19565;46.602;11.534;2023-04-01T13:07:58;18.35;;;17.45;;
33206;SDS011;19565;46.602;11.534;2023-04-01T13:10:43;18.98;;;18.08;;
33206;SDS011;19565;46.602;11.534;2023-04-01T13:13:28;18.45;;;17.55;;
33206;SDS011;19565;46.602;11.534;2023-04-01T13:16:06;17.95;;;17.05;;
33206;SDS011;19565;46.602;11.534;2023-04-01T13:18:39;19.25;;;17.95;;
33206;SDS011;19565;46.602;11.534;2023-04-01T13:21:21;17.95;;;17.05;;
33206;SDS011;19565;46.602;11.534;2023-04-01T13:24:01;17.92;;;17.02;;
33206;SDS011;19565;46.602;11.534;2023-04-01T13:26:36;17.77;;;16.88;;
33206;SDS011;19565;46.602;11.534;2023-04-01T13:29:19;19.38;;;18.48;;
33206;SDS011;19565;46.602;11.534;2023-04-01T13:31:55;17.48;;;16.65;;
33206;SDS011;19565;46.602;11.534;2023-04-01T13:34:35;17.48;;;16.67;;
33206;SDS011;19565;46.602;11.534;2023-04-01T13:37:18;18.00;;;17.10;;
33206;SDS011;19565;46.602;11.534;2023-04-01T13:40:19;17.70;;;16.83;;
33206;SDS011;19565;46.602;11.534;2023-04-01T13:42:57;28.55;;;27.35;;
33206;SDS011;19565;46.602;11.534;2023-04-01T13:45:29;22.20;;;21.20;;
33206;SDS011;19565;46.602;11.534;2023-04-01T13:48:20;31.80;;;30.50;;
33206;SDS011;19565;46.602;11.534;2023-04-01T13:51:02;30.08;;;28.77;;
33206;SDS011;19565;46.602;11.534;2023-04-01T13:53:48;17.55;;;16.75;;
33206;SDS011;19565;46.602;11.534;2023-04-01T13:56:45;18.02;;;17.13;;
33206;SDS011;19565;46.602;11.534;2023-04-01T13:59:32;17.52;;;16.73;;
33206;SDS011;19565;46.602;11.534;2023-04-01T14:02:27;17.90;;;17.00;;
33206;SDS011;19565;46.602;11.534;2023-04-01T14:05:14;18.80;;;17.90;;
33206;SDS011;19565;46.602;11.534;2023-04-01T14:08:09;18.27;;;17.38;;
33206;SDS011;19565;46.602;11.534;2023-04-01T14:10:49;18.40;;;17.50;;
33206;SDS011;19565;46.602;11.534;2023-04-01T14:13:27;18.45;;;17.55;;
33206;SDS011;19565;46.602;11.534;2023-04-01T14:16:12;29.83;;;28.52;;
33206;SDS011;19565;46.602;11.534;2023-04-01T14:18:59;18.85;;;17.95;;
33206;SDS011;19565;46.602;11.534;2023-04-01T14:21:37;18.63;;;17.73;;
33206;SDS011;19565;46.602;11.534;2023-04-01T14:24:21;17.65;;;16.83;;
33206;SDS011;19565;46.602;11.534;2023-04-01T14:33:16;17.17;;;16.38;;
33206;SDS011;19565;46.602;11.534;2023-04-01T14:35:59;17.58;;;16.73;;
33206;SDS011;19565;46.602;11.534;2023-04-01T14:38:43;18.15;;;17.25;;
33206;SDS011;19565;46.602;11.534;2023-04-01T14:41:20;18.25;;;17.35;;
33206;SDS011;19565;46.602;11.534;2023-04-01T14:44:04;18.02;;;17.13;;
33206;SDS011;19565;46.602;11.534;2023-04-01T14:47:02;17.30;;;16.50;;
33206;SDS011;19565;46.602;11.534;2023-04-01T14:49:39;17.30;;;16.50;;
33206;SDS011;19565;46.602;11.534;2023-04-01T14:52:10;16.55;;;15.75;;
33206;SDS011;19565;46.602;11.534;2023-04-01T14:54:42;28.77;;;27.48;;
33206;SDS011;19565;46.602;11.534;2023-04-01T14:57:14;11.50;;;10.82;;
33206;SDS011;19565;46.602;11.534;2023-04-01T14:59:46;17.88;;;16.98;;
33206;SDS011;19565;46.602;11.534;2023-04-01T15:02:23;16.70;;;15.90;;
33206;SDS011;19565;46.602;11.534;2023-04-01T15:05:10;17.63;;;16.83;;
33206;SDS011;19565;46.602;11.534;2023-04-01T15:07:50;18.20;;;17.30;;
33206;SDS011;19565;46.602;11.534;2023-04-01T15:10:35;17.75;;;16.85;;
33206;SDS011;19565;46.602;11.534;2023-04-01T15:16:31;16.33;;;15.52;;
33206;SDS011;19565;46.602;11.534;2023-04-01T15:19:11;18.45;;;17.55;;
33206;SDS011;19565;46.602;11.534;2023-04-01T15:21:50;20.60;;;19.60;;
33206;SDS011;19565;46.602;11.534;2023-04-01T15:24:38;12.95;;;12.25;;
33206;SDS011;19565;46.602;11.534;2023-04-01T15:27:16;17.50;;;16.60;;
33206;SDS011;19565;46.602;11.534;2023-04-01T15:30:02;18.08;;;17.17;;
33206;SDS011;19565;46.602;11.534;2023-04-01T15:33:02;17.02;;;16.23;;
33206;SDS011;19565;46.602;11.534;2023-04-01T15:35:43;16.67;;;15.88;;
33206;SDS011;19565;46.602;11.534;2023-04-01T15:38:19;20.67;;;19.60;;
33206;SDS011;19565;46.602;11.534;2023-04-01T15:40:56;16.23;;;15.38;;
33206;SDS011;19565;46.602;11.534;2023-04-01T15:43:32;18.10;;;17.20;;
33206;SDS011;19565;46.602;11.534;2023-04-01T15:49:12;18.17;;;17.27;;
33206;SDS011;19565;46.602;11.534;2023-04-01T15:51:56;27.52;;;26.33;;
33206;SDS011;19565;46.602;11.534;2023-04-01T15:54:38;16.20;;;15.40;;
33206;SDS011;19565;46.602;11.534;2023-04-01T15:57:35;17.58;;;16.77;;
33206;SDS011;19565;46.602;11.534;2023-04-01T16:00:20;18.48;;;17.58;;
33206;SDS011;19565;46.602;11.534;2023-04-01T16:02:58;20.30;;;19.33;;
33206;SDS011;19565;46.602;11.534;2023-04-01T16:05:54;19.42;;;18.52;;
33206;SDS011;19565;46.602;11.534;2023-04-01T16:08:48;18.90;;;18.00;;
33206;SDS011;19565;46.602;11.534;2023-04-01T16:11:39;18.73;;;17.83;;
33206;SDS011;19565;46.602;11.534;2023-04-01T16:14:23;19.88;;;18.88;;
33206;SDS011;19565;46.602;11.534;2023-04-01T16:17:11;21.88;;;20.77;;
33206;SDS011;19565;46.602;11.534;2023-04-01T16:19:51;19.17;;;18.27;;
33206;SDS011;19565;46.602;11.534;2023-04-01T16:22:23;18.80;;;17.90;;
33206;SDS011;19565;46.602;11.534;2023-04-01T16:25:01;17.98;;;17.08;;
33206;SDS011;19565;46.602;11.534;2023-04-01T16:27:46;17.80;;;16.90;;
33206;SDS011;19565;46.602;11.534;2023-04-01T16:30:33;17.80;;;16.92;;
33206;SDS011;19565;46.602;11.534;2023-04-01T16:33:03;17.93;;;17.03;;
33206;SDS011;19565;46.602;11.534;2023-04-01T16:35:40;17.85;;;16.95;;
33206;SDS011;19565;46.602;11.534;2023-04-01T16:38:13;18.40;;;17.50;;
33206;SDS011;19565;46.602;11.534;2023-04-01T16:40:50;19.30;;;18.40;;
33206;SDS011;19565;46.602;11.534;2023-04-01T16:43:28;19.67;;;18.77;;
33206;SDS011;19565;46.602;11.534;2023-04-01T16:46:12;21.70;;;20.60;;
33206;SDS011;19565;46.602;11.534;2023-04-01T16:49:01;18.10;;;17.20;;
33206;SDS011;19565;46.602;11.534;2023-04-01T16:51:44;17.98;;;17.08;;
33206;SDS011;19565;46.602;11.534;2023-04-01T16:54:17;18.10;;;17.20;;
33206;SDS011;19565;46.602;11.534;2023-04-01T16:56:55;17.48;;;16.67;;
33206;SDS011;19565;46.602;11.534;2023-04-01T16:59:44;17.08;;;16.27;;
33206;SDS011;19565;46.602;11.534;2023-04-01T17:02:20;17.65;;;16.77;;
33206;SDS011;19565;46.602;11.534;2023-04-01T17:04:57;18.30;;;17.40;;
33206;SDS011;19565;46.602;11.534;2023-04-01T17:07:30;18.27;;;17.38;;
33206;SDS011;19565;46.602;11.534;2023-04-01T17:10:15;18.27;;;17.38;;
33206;SDS011;19565;46.602;11.534;2023-04-01T17:12:59;18.13;;;17.23;;
33206;SDS011;19565;46.602;11.534;2023-04-01T17:15:51;18.00;;;17.10;;
33206;SDS011;19565;46.602;11.534;2023-04-01T17:18:27;18.20;;;17.30;;